sensor_id;sensor_type;location;lat;lon;timestamp;P1;durP1;ratioP1;P2;durP2;ratioP2
9964;SDS011;5023;53.554;9.964;2023-09-12T00:02:36;45.70;;;39.58;;
9964;SDS011;5023;53.554;9.964;2023-09-12T00:07:39;46.08;;;39.85;;
9964;SDS011;5023;53.554;9.964;2023-09-12T00:12:44;47.33;;;38.03;;
9964;SDS011;5023;53.554;9.964;2023-09-12T00:17:47;40.00;;;33.05;;
9964;SDS011;5023;53.554;9.964;2023-09-12T00:22:49;37.95;;;32.70;;
9964;SDS011;5023;53.554;9.964;2023-09-12T00:27:53;40.17;;;31.92;;
9964;SDS011;5023;53.554;9.964;2023-09-12T00:32:56;39.00;;;30.77;;
9964;SDS011;5023;53.554;9.964;2023-09-12T00:37:59;37.25;;;30.77;;
9964;SDS011;5023;53.554;9.964;2023-09-12T00:43:01;32.22;;;27.70;;
9964;SDS011;5023;53.554;9.964;2023-09-12T00:48:06;35.28;;;28.65;;
9964;SDS011;5023;53.554;9.964;2023-09-12T00:53:11;29.75;;;26.02;;
9964;SDS011;5023;53.554;9.964;2023-09-12T00:58:13;31.88;;;26.88;;
9964;SDS011;5023;53.554;9.964;2023-09-12T01:03:17;28.05;;;24.55;;
9964;SDS011;5023;53.554;9.964;2023-09-12T01:08:20;28.17;;;25.15;;
9964;SDS011;5023;53.554;9.964;2023-09-12T01:13:22;26.48;;;23.83;;
9964;SDS011;5023;53.554;9.964;2023-09-12T01:18:26;27.48;;;24.55;;
9964;SDS011;5023;53.554;9.964;2023-09-12T01:23:33;28.65;;;24.58;;
9964;SDS011;5023;53.554;9.964;2023-09-12T01:28:48;29.42;;;24.15;;
9964;SDS011;5023;53.554;9.964;2023-09-12T01:33:57;28.17;;;25.20;;
9964;SDS011;5023;53.554;9.964;2023-09-12T01:39:00;28.92;;;25.92;;
9964;SDS011;5023;53.554;9.964;2023-09-12T01:44:03;31.00;;;26.10;;
9964;SDS011;5023;53.554;9.964;2023-09-12T01:49:07;31.23;;;26.90;;
9964;SDS011;5023;53.554;9.964;2023-09-12T01:54:10;27.05;;;23.88;;
9964;SDS011;5023;53.554;9.964;2023-09-12T01:59:14;30.75;;;26.80;;
9964;SDS011;5023;53.554;9.964;2023-09-12T02:04:16;32.03;;;25.80;;
9964;SDS011;5023;53.554;9.964;2023-09-12T02:09:18;31.95;;;26.40;;
9964;SDS011;5023;53.554;9.964;2023-09-12T02:14:22;30.25;;;26.40;;
9964;SDS011;5023;53.554;9.964;2023-09-12T02:19:23;34.38;;;27.00;;
9964;SDS011;5023;53.554;9.964;2023-09-12T02:24:25;31.63;;;26.60;;
9964;SDS011;5023;53.554;9.964;2023-09-12T02:29:29;33.00;;;28.23;;
9964;SDS011;5023;53.554;9.964;2023-09-12T02:34:32;33.55;;;27.40;;
9964;SDS011;5023;53.554;9.964;2023-09-12T02:39:34;30.60;;;26.58;;
9964;SDS011;5023;53.554;9.964;2023-09-12T02:44:38;31.50;;;27.55;;
9964;SDS011;5023;53.554;9.964;2023-09-12T02:49:40;31.48;;;27.95;;
9964;SDS011;5023;53.554;9.964;2023-09-12T02:54:42;30.63;;;27.38;;
9964;SDS011;5023;53.554;9.964;2023-09-12T02:59:46;31.35;;;28.00;;
9964;SDS011;5023;53.554;9.964;2023-09-12T03:04:55;40.45;;;33.15;;
9964;SDS011;5023;53.554;9.964;2023-09-12T03:09:57;38.85;;;31.45;;
9964;SDS011;5023;53.554;9.964;2023-09-12T03:15:00;38.03;;;33.45;;
9964;SDS011;5023;53.554;9.964;2023-09-12T03:20:07;42.80;;;36.08;;
9964;SDS011;5023;53.554;9.964;2023-09-12T03:25:14;40.88;;;35.42;;
9964;SDS011;5023;53.554;9.964;2023-09-12T03:30:21;40.15;;;34.33;;
9964;SDS011;5023;53.554;9.964;2023-09-12T03:35:23;44.47;;;35.63;;
9964;SDS011;5023;53.554;9.964;2023-09-12T03:40:27;41.10;;;35.95;;
9964;SDS011;5023;53.554;9.964;2023-09-12T03:45:32;40.70;;;35.00;;
9964;SDS011;5023;53.554;9.964;2023-09-12T03:50:33;44.28;;;36.88;;
9964;SDS011;5023;53.554;9.964;2023-09-12T03:55:35;42.28;;;35.90;;
9964;SDS011;5023;53.554;9.964;2023-09-12T04:00:39;37.63;;;33.28;;
9964;SDS011;5023;53.554;9.964;2023-09-12T04:05:41;40.17;;;35.30;;
9964;SDS011;5023;53.554;9.964;2023-09-12T04:10:43;43.70;;;35.03;;
9964;SDS011;5023;53.554;9.964;2023-09-12T04:15:46;40.53;;;32.45;;
9964;SDS011;5023;53.554;9.964;2023-09-12T04:20:48;40.00;;;34.30;;
9964;SDS011;5023;53.554;9.964;2023-09-12T04:25:50;43.08;;;36.28;;
9964;SDS011;5023;53.554;9.964;2023-09-12T04:31:01;45.60;;;37.60;;
9964;SDS011;5023;53.554;9.964;2023-09-12T04:36:04;47.20;;;38.55;;
9964;SDS011;5023;53.554;9.964;2023-09-12T04:41:06;41.63;;;37.13;;
9964;SDS011;5023;53.554;9.964;2023-09-12T04:46:10;47.22;;;39.47;;
9964;SDS011;5023;53.554;9.964;2023-09-12T04:51:12;46.03;;;38.58;;
9964;SDS011;5023;53.554;9.964;2023-09-12T04:56:14;44.55;;;36.45;;
9964;SDS011;5023;53.554;9.964;2023-09-12T05:01:17;47.65;;;37.30;;
9964;SDS011;5023;53.554;9.964;2023-09-12T05:06:20;50.25;;;38.75;;
9964;SDS011;5023;53.554;9.964;2023-09-12T05:11:22;45.30;;;36.45;;
9964;SDS011;5023;53.554;9.964;2023-09-12T05:16:26;48.60;;;37.78;;
9964;SDS011;5023;53.554;9.964;2023-09-12T05:21:31;47.08;;;38.08;;
9964;SDS011;5023;53.554;9.964;2023-09-12T05:26:34;51.75;;;40.17;;
9964;SDS011;5023;53.554;9.964;2023-09-12T05:31:37;45.00;;;36.78;;
9964;SDS011;5023;53.554;9.964;2023-09-12T05:36:40;46.95;;;36.78;;
9964;SDS011;5023;53.554;9.964;2023-09-12T05:41:42;49.53;;;38.72;;
9964;SDS011;5023;53.554;9.964;2023-09-12T05:46:45;51.03;;;39.53;;
9964;SDS011;5023;53.554;9.964;2023-09-12T05:51:50;52.03;;;40.28;;
9964;SDS011;5023;53.554;9.964;2023-09-12T05:56:52;55.53;;;43.15;;
9964;SDS011;5023;53.554;9.964;2023-09-12T06:01:55;52.42;;;41.67;;
9964;SDS011;5023;53.554;9.964;2023-09-12T06:06:58;46.47;;;38.30;;
9964;SDS011;5023;53.554;9.964;2023-09-12T06:12:00;58.33;;;43.72;;
9964;SDS011;5023;53.554;9.964;2023-09-12T06:17:04;48.95;;;37.38;;
9964;SDS011;5023;53.554;9.964;2023-09-12T06:22:06;46.45;;;37.53;;
9964;SDS011;5023;53.554;9.964;2023-09-12T06:27:08;50.15;;;39.10;;
9964;SDS011;5023;53.554;9.964;2023-09-12T06:32:13;51.90;;;39.30;;
9964;SDS011;5023;53.554;9.964;2023-09-12T06:37:16;44.38;;;36.20;;
9964;SDS011;5023;53.554;9.964;2023-09-12T06:42:18;51.97;;;37.63;;
9964;SDS011;5023;53.554;9.964;2023-09-12T06:47:21;44.10;;;35.78;;
9964;SDS011;5023;53.554;9.964;2023-09-12T06:52:23;51.28;;;35.53;;
9964;SDS011;5023;53.554;9.964;2023-09-12T06:57:25;54.22;;;38.05;;
9964;SDS011;5023;53.554;9.964;2023-09-12T07:02:30;50.33;;;34.78;;
9964;SDS011;5023;53.554;9.964;2023-09-12T07:07:36;47.10;;;37.08;;
9964;SDS011;5023;53.554;9.964;2023-09-12T07:12:38;45.97;;;36.55;;
9964;SDS011;5023;53.554;9.964;2023-09-12T07:17:42;47.97;;;37.05;;
9964;SDS011;5023;53.554;9.964;2023-09-12T07:22:43;43.65;;;35.08;;
9964;SDS011;5023;53.554;9.964;2023-09-12T07:27:46;42.72;;;34.65;;
9964;SDS011;5023;53.554;9.964;2023-09-12T07:32:49;42.35;;;35.10;;
9964;SDS011;5023;53.554;9.964;2023-09-12T07:37:52;47.20;;;37.05;;
9964;SDS011;5023;53.554;9.964;2023-09-12T07:42:54;51.85;;;36.75;;
9964;SDS011;5023;53.554;9.964;2023-09-12T07:47:57;44.08;;;34.38;;
9964;SDS011;5023;53.554;9.964;2023-09-12T07:52:59;36.35;;;30.92;;
9964;SDS011;5023;53.554;9.964;2023-09-12T07:58:01;44.45;;;34.80;;
9964;SDS011;5023;53.554;9.964;2023-09-12T08:03:05;41.38;;;32.83;;
9964;SDS011;5023;53.554;9.964;2023-09-12T08:08:07;35.85;;;31.13;;
9964;SDS011;5023;53.554;9.964;2023-09-12T08:13:09;39.90;;;33.08;;
9964;SDS011;5023;53.554;9.964;2023-09-12T08:18:13;34.78;;;30.67;;
9964;SDS011;5023;53.554;9.964;2023-09-12T08:23:15;33.92;;;30.23;;
9964;SDS011;5023;53.554;9.964;2023-09-12T08:28:17;33.97;;;30.48;;
9964;SDS011;5023;53.554;9.964;2023-09-12T08:33:20;34.58;;;30.85;;
9964;SDS011;5023;53.554;9.964;2023-09-12T08:38:22;35.72;;;31.70;;
9964;SDS011;5023;53.554;9.964;2023-09-12T08:43:24;37.90;;;33.85;;
9964;SDS011;5023;53.554;9.964;2023-09-12T08:48:28;30.63;;;27.33;;
9964;SDS011;5023;53.554;9.964;2023-09-12T08:53:35;33.53;;;29.08;;
9964;SDS011;5023;53.554;9.964;2023-09-12T08:58:37;33.70;;;27.80;;
9964;SDS011;5023;53.554;9.964;2023-09-12T09:03:41;27.73;;;24.92;;
9964;SDS011;5023;53.554;9.964;2023-09-12T09:08:45;28.88;;;25.75;;
9964;SDS011;5023;53.554;9.964;2023-09-12T09:13:48;30.15;;;26.63;;
9964;SDS011;5023;53.554;9.964;2023-09-12T09:18:52;24.98;;;22.40;;
9964;SDS011;5023;53.554;9.964;2023-09-12T09:23:55;24.42;;;21.92;;
9964;SDS011;5023;53.554;9.964;2023-09-12T09:29:03;21.42;;;19.17;;
9964;SDS011;5023;53.554;9.964;2023-09-12T09:34:11;23.42;;;21.13;;
9964;SDS011;5023;53.554;9.964;2023-09-12T09:39:15;25.67;;;23.08;;
9964;SDS011;5023;53.554;9.964;2023-09-12T09:44:20;22.83;;;20.58;;
9964;SDS011;5023;53.554;9.964;2023-09-12T09:49:31;22.55;;;20.20;;
9964;SDS011;5023;53.554;9.964;2023-09-12T09:54:42;21.48;;;19.17;;
9964;SDS011;5023;53.554;9.964;2023-09-12T09:59:48;23.27;;;20.98;;
9964;SDS011;5023;53.554;9.964;2023-09-12T10:04:53;22.88;;;20.65;;
9964;SDS011;5023;53.554;9.964;2023-09-12T10:09:55;24.33;;;21.80;;
9964;SDS011;5023;53.554;9.964;2023-09-12T10:14:59;22.15;;;19.88;;
9964;SDS011;5023;53.554;9.964;2023-09-12T10:20:07;22.40;;;20.08;;
9964;SDS011;5023;53.554;9.964;2023-09-12T10:25:14;24.17;;;21.60;;
9964;SDS011;5023;53.554;9.964;2023-09-12T10:30:16;25.10;;;22.52;;
9964;SDS011;5023;53.554;9.964;2023-09-12T10:35:20;27.38;;;24.45;;
9964;SDS011;5023;53.554;9.964;2023-09-12T10:40:32;26.83;;;24.13;;
9964;SDS011;5023;53.554;9.964;2023-09-12T10:45:38;26.55;;;23.98;;
9964;SDS011;5023;53.554;9.964;2023-09-12T10:50:43;25.85;;;23.35;;
9964;SDS011;5023;53.554;9.964;2023-09-12T10:55:56;28.05;;;24.95;;
9964;SDS011;5023;53.554;9.964;2023-09-12T11:06:29;26.45;;;23.85;;
9964;SDS011;5023;53.554;9.964;2023-09-12T11:11:31;28.40;;;25.58;;
9964;SDS011;5023;53.554;9.964;2023-09-12T11:16:33;30.15;;;27.05;;
9964;SDS011;5023;53.554;9.964;2023-09-12T11:21:48;28.92;;;26.02;;
9964;SDS011;5023;53.554;9.964;2023-09-12T11:26:55;30.63;;;27.42;;
9964;SDS011;5023;53.554;9.964;2023-09-12T11:31:59;32.80;;;29.45;;
9964;SDS011;5023;53.554;9.964;2023-09-12T11:37:04;29.02;;;26.17;;
9964;SDS011;5023;53.554;9.964;2023-09-12T11:42:11;29.88;;;26.73;;
9964;SDS011;5023;53.554;9.964;2023-09-12T11:47:14;35.72;;;27.63;;
9964;SDS011;5023;53.554;9.964;2023-09-12T11:52:18;28.73;;;25.83;;
9964;SDS011;5023;53.554;9.964;2023-09-12T11:57:20;27.25;;;24.65;;
9964;SDS011;5023;53.554;9.964;2023-09-12T12:02:22;23.52;;;21.15;;
9964;SDS011;5023;53.554;9.964;2023-09-12T12:07:26;23.27;;;20.98;;
9964;SDS011;5023;53.554;9.964;2023-09-12T12:12:28;22.23;;;20.17;;
9964;SDS011;5023;53.554;9.964;2023-09-12T12:17:30;21.95;;;19.73;;
9964;SDS011;5023;53.554;9.964;2023-09-12T12:22:33;23.08;;;20.85;;
9964;SDS011;5023;53.554;9.964;2023-09-12T12:27:36;19.48;;;17.70;;
9964;SDS011;5023;53.554;9.964;2023-09-12T12:32:39;21.65;;;19.52;;
9964;SDS011;5023;53.554;9.964;2023-09-12T12:37:43;21.25;;;19.25;;
9964;SDS011;5023;53.554;9.964;2023-09-12T12:42:45;20.88;;;18.95;;
9964;SDS011;5023;53.554;9.964;2023-09-12T12:47:50;20.20;;;18.42;;
9964;SDS011;5023;53.554;9.964;2023-09-12T12:52:54;22.88;;;20.60;;
9964;SDS011;5023;53.554;9.964;2023-09-12T12:57:56;22.30;;;20.27;;
9964;SDS011;5023;53.554;9.964;2023-09-12T13:02:58;21.40;;;19.23;;
9964;SDS011;5023;53.554;9.964;2023-09-12T13:08:01;23.60;;;21.50;;
9964;SDS011;5023;53.554;9.964;2023-09-12T13:13:04;21.27;;;19.38;;
9964;SDS011;5023;53.554;9.964;2023-09-12T13:18:06;22.20;;;20.20;;
9964;SDS011;5023;53.554;9.964;2023-09-12T13:23:09;21.05;;;19.08;;
9964;SDS011;5023;53.554;9.964;2023-09-12T13:28:13;20.77;;;18.70;;
9964;SDS011;5023;53.554;9.964;2023-09-12T13:33:15;21.13;;;19.10;;
9964;SDS011;5023;53.554;9.964;2023-09-12T13:38:18;21.08;;;19.05;;
9964;SDS011;5023;53.554;9.964;2023-09-12T13:43:21;22.52;;;20.42;;
9964;SDS011;5023;53.554;9.964;2023-09-12T13:48:24;23.70;;;21.58;;
9964;SDS011;5023;53.554;9.964;2023-09-12T13:53:28;21.33;;;19.42;;
9964;SDS011;5023;53.554;9.964;2023-09-12T13:58:30;22.05;;;19.67;;
9964;SDS011;5023;53.554;9.964;2023-09-12T14:03:33;20.25;;;18.40;;
9964;SDS011;5023;53.554;9.964;2023-09-12T14:08:36;22.35;;;20.45;;
9964;SDS011;5023;53.554;9.964;2023-09-12T14:13:38;22.77;;;20.75;;
9964;SDS011;5023;53.554;9.964;2023-09-12T14:18:40;22.00;;;20.00;;
9964;SDS011;5023;53.554;9.964;2023-09-12T14:23:43;21.85;;;19.95;;
9964;SDS011;5023;53.554;9.964;2023-09-12T14:28:45;22.25;;;19.63;;
9964;SDS011;5023;53.554;9.964;2023-09-12T14:33:48;20.48;;;18.58;;
9964;SDS011;5023;53.554;9.964;2023-09-12T14:38:53;21.33;;;19.23;;
9964;SDS011;5023;53.554;9.964;2023-09-12T14:43:56;21.20;;;19.20;;
9964;SDS011;5023;53.554;9.964;2023-09-12T14:48:58;20.38;;;18.45;;
9964;SDS011;5023;53.554;9.964;2023-09-12T14:54:02;21.25;;;19.15;;
9964;SDS011;5023;53.554;9.964;2023-09-12T14:59:05;20.50;;;18.60;;
9964;SDS011;5023;53.554;9.964;2023-09-12T15:04:07;18.88;;;17.23;;
9964;SDS011;5023;53.554;9.964;2023-09-12T15:09:10;20.23;;;18.42;;
9964;SDS011;5023;53.554;9.964;2023-09-12T15:14:12;19.90;;;18.20;;
9964;SDS011;5023;53.554;9.964;2023-09-12T15:19:14;18.88;;;17.08;;
9964;SDS011;5023;53.554;9.964;2023-09-12T15:24:17;17.98;;;16.38;;
9964;SDS011;5023;53.554;9.964;2023-09-12T15:29:19;18.95;;;17.25;;
9964;SDS011;5023;53.554;9.964;2023-09-12T15:34:21;20.10;;;18.10;;
9964;SDS011;5023;53.554;9.964;2023-09-12T15:39:25;17.73;;;16.23;;
9964;SDS011;5023;53.554;9.964;2023-09-12T15:44:27;17.60;;;16.05;;
9964;SDS011;5023;53.554;9.964;2023-09-12T15:49:31;17.85;;;16.13;;
9964;SDS011;5023;53.554;9.964;2023-09-12T15:54:35;17.58;;;15.98;;
9964;SDS011;5023;53.554;9.964;2023-09-12T15:59:37;18.88;;;17.08;;
9964;SDS011;5023;53.554;9.964;2023-09-12T16:04:39;18.98;;;17.38;;
9964;SDS011;5023;53.554;9.964;2023-09-12T16:09:42;20.60;;;18.75;;
9964;SDS011;5023;53.554;9.964;2023-09-12T16:14:44;20.83;;;18.98;;
9964;SDS011;5023;53.554;9.964;2023-09-12T16:19:46;18.13;;;16.58;;
9964;SDS011;5023;53.554;9.964;2023-09-12T16:24:49;20.08;;;18.08;;
9964;SDS011;5023;53.554;9.964;2023-09-12T16:29:51;17.38;;;15.90;;
9964;SDS011;5023;53.554;9.964;2023-09-12T16:34:53;19.70;;;17.90;;
9964;SDS011;5023;53.554;9.964;2023-09-12T16:39:58;18.77;;;17.05;;
9964;SDS011;5023;53.554;9.964;2023-09-12T16:45:00;17.52;;;15.88;;
9964;SDS011;5023;53.554;9.964;2023-09-12T16:50:05;18.02;;;16.45;;
9964;SDS011;5023;53.554;9.964;2023-09-12T16:55:09;18.45;;;16.67;;
9964;SDS011;5023;53.554;9.964;2023-09-12T17:00:13;16.13;;;14.50;;
9964;SDS011;5023;53.554;9.964;2023-09-12T17:05:15;17.17;;;15.57;;
9964;SDS011;5023;53.554;9.964;2023-09-12T17:10:19;25.10;;;22.80;;
9964;SDS011;5023;53.554;9.964;2023-09-12T17:15:21;17.58;;;15.98;;
9964;SDS011;5023;53.554;9.964;2023-09-12T17:20:25;19.35;;;17.65;;
9964;SDS011;5023;53.554;9.964;2023-09-12T17:25:28;19.27;;;17.48;;
9964;SDS011;5023;53.554;9.964;2023-09-12T17:30:30;18.60;;;16.95;;
9964;SDS011;5023;53.554;9.964;2023-09-12T17:35:32;19.38;;;17.58;;
9964;SDS011;5023;53.554;9.964;2023-09-12T17:40:35;19.00;;;17.20;;
9964;SDS011;5023;53.554;9.964;2023-09-12T17:45:38;18.92;;;17.23;;
9964;SDS011;5023;53.554;9.964;2023-09-12T17:50:40;19.80;;;18.00;;
9964;SDS011;5023;53.554;9.964;2023-09-12T17:55:44;16.90;;;15.40;;
9964;SDS011;5023;53.554;9.964;2023-09-12T18:00:54;20.02;;;18.17;;
9964;SDS011;5023;53.554;9.964;2023-09-12T18:05:57;28.30;;;25.80;;
9964;SDS011;5023;53.554;9.964;2023-09-12T18:11:00;20.25;;;18.55;;
9964;SDS011;5023;53.554;9.964;2023-09-12T18:16:03;21.92;;;19.70;;
9964;SDS011;5023;53.554;9.964;2023-09-12T18:21:05;20.45;;;18.67;;
9964;SDS011;5023;53.554;9.964;2023-09-12T18:26:08;20.35;;;18.65;;
9964;SDS011;5023;53.554;9.964;2023-09-12T18:31:11;22.30;;;20.27;;
9964;SDS011;5023;53.554;9.964;2023-09-12T18:36:13;23.70;;;21.50;;
9964;SDS011;5023;53.554;9.964;2023-09-12T18:41:17;22.20;;;20.10;;
9964;SDS011;5023;53.554;9.964;2023-09-12T18:46:19;25.80;;;23.42;;
9964;SDS011;5023;53.554;9.964;2023-09-12T18:51:21;25.40;;;22.77;;
9964;SDS011;5023;53.554;9.964;2023-09-12T18:56:25;21.55;;;19.55;;
9964;SDS011;5023;53.554;9.964;2023-09-12T19:01:26;29.45;;;26.33;;
9964;SDS011;5023;53.554;9.964;2023-09-12T19:06:28;25.10;;;22.75;;
9964;SDS011;5023;53.554;9.964;2023-09-12T19:11:32;20.42;;;18.63;;
9964;SDS011;5023;53.554;9.964;2023-09-12T19:16:34;24.15;;;21.67;;
9964;SDS011;5023;53.554;9.964;2023-09-12T19:21:35;22.38;;;20.27;;
9964;SDS011;5023;53.554;9.964;2023-09-12T19:26:39;21.98;;;20.02;;
9964;SDS011;5023;53.554;9.964;2023-09-12T19:31:44;22.83;;;20.75;;
9964;SDS011;5023;53.554;9.964;2023-09-12T19:36:46;37.05;;;33.53;;
9964;SDS011;5023;53.554;9.964;2023-09-12T19:41:49;25.80;;;23.45;;
9964;SDS011;5023;53.554;9.964;2023-09-12T19:46:51;23.23;;;21.15;;
9964;SDS011;5023;53.554;9.964;2023-09-12T19:51:53;29.23;;;26.42;;
9964;SDS011;5023;53.554;9.964;2023-09-12T19:56:56;42.47;;;38.30;;
9964;SDS011;5023;53.554;9.964;2023-09-12T20:01:58;29.75;;;26.70;;
9964;SDS011;5023;53.554;9.964;2023-09-12T20:07:01;28.63;;;25.83;;
9964;SDS011;5023;53.554;9.964;2023-09-12T20:12:05;28.27;;;25.55;;
9964;SDS011;5023;53.554;9.964;2023-09-12T20:17:07;24.83;;;22.30;;
9964;SDS011;5023;53.554;9.964;2023-09-12T20:22:09;27.30;;;24.58;;
9964;SDS011;5023;53.554;9.964;2023-09-12T20:27:14;28.23;;;25.42;;
9964;SDS011;5023;53.554;9.964;2023-09-12T20:32:16;27.40;;;24.67;;
9964;SDS011;5023;53.554;9.964;2023-09-12T20:37:18;27.38;;;24.73;;
9964;SDS011;5023;53.554;9.964;2023-09-12T20:42:21;26.73;;;24.13;;
9964;SDS011;5023;53.554;9.964;2023-09-12T20:47:23;29.13;;;26.45;;
9964;SDS011;5023;53.554;9.964;2023-09-12T20:52:25;27.48;;;24.98;;
9964;SDS011;5023;53.554;9.964;2023-09-12T20:57:29;29.05;;;26.23;;
9964;SDS011;5023;53.554;9.964;2023-09-12T21:02:33;33.50;;;30.20;;
9964;SDS011;5023;53.554;9.964;2023-09-12T21:07:35;27.70;;;25.17;;
9964;SDS011;5023;53.554;9.964;2023-09-12T21:12:39;29.35;;;26.45;;
9964;SDS011;5023;53.554;9.964;2023-09-12T21:17:41;30.15;;;27.23;;
9964;SDS011;5023;53.554;9.964;2023-09-12T21:22:43;25.90;;;23.50;;
9964;SDS011;5023;53.554;9.964;2023-09-12T21:27:46;24.98;;;22.65;;
9964;SDS011;5023;53.554;9.964;2023-09-12T21:32:48;30.60;;;27.63;;
9964;SDS011;5023;53.554;9.964;2023-09-12T21:37:52;29.83;;;26.85;;
9964;SDS011;5023;53.554;9.964;2023-09-12T21:42:56;29.27;;;26.52;;
9964;SDS011;5023;53.554;9.964;2023-09-12T21:47:58;28.50;;;25.75;;
9964;SDS011;5023;53.554;9.964;2023-09-12T21:53:00;25.75;;;23.35;;
9964;SDS011;5023;53.554;9.964;2023-09-12T21:58:03;29.33;;;26.50;;
9964;SDS011;5023;53.554;9.964;2023-09-12T22:03:06;27.42;;;24.77;;
9964;SDS011;5023;53.554;9.964;2023-09-12T22:08:08;26.58;;;24.08;;
9964;SDS011;5023;53.554;9.964;2023-09-12T22:13:11;25.17;;;22.88;;
9964;SDS011;5023;53.554;9.964;2023-09-12T22:18:13;34.20;;;31.00;;
9964;SDS011;5023;53.554;9.964;2023-09-12T22:23:15;30.73;;;27.83;;
9964;SDS011;5023;53.554;9.964;2023-09-12T22:28:20;24.83;;;22.55;;
9964;SDS011;5023;53.554;9.964;2023-09-12T22:33:24;25.48;;;23.17;;
9964;SDS011;5023;53.554;9.964;2023-09-12T22:38:26;33.05;;;29.92;;
9964;SDS011;5023;53.554;9.964;2023-09-12T22:43:30;24.90;;;22.60;;
9964;SDS011;5023;53.554;9.964;2023-09-12T22:48:33;24.83;;;22.52;;
9964;SDS011;5023;53.554;9.964;2023-09-12T22:53:35;26.63;;;24.23;;
9964;SDS011;5023;53.554;9.964;2023-09-12T22:58:38;27.45;;;24.95;;
9964;SDS011;5023;53.554;9.964;2023-09-12T23:03:40;26.17;;;23.67;;
9964;SDS011;5023;53.554;9.964;2023-09-12T23:08:42;35.60;;;32.17;;
9964;SDS011;5023;53.554;9.964;2023-09-12T23:13:46;31.15;;;28.13;;
9964;SDS011;5023;53.554;9.964;2023-09-12T23:18:48;34.42;;;31.13;;
9964;SDS011;5023;53.554;9.964;2023-09-12T23:23:50;31.00;;;28.00;;
9964;SDS011;5023;53.554;9.964;2023-09-12T23:28:53;27.00;;;24.40;;
9964;SDS011;5023;53.554;9.964;2023-09-12T23:33:55;32.85;;;29.70;;
9964;SDS011;5023;53.554;9.964;2023-09-12T23:38:57;28.63;;;25.77;;
9964;SDS011;5023;53.554;9.964;2023-09-12T23:44:01;26.88;;;24.48;;
9964;SDS011;5023;53.554;9.964;2023-09-12T23:49:03;27.25;;;24.58;;
9964;SDS011;5023;53.554;9.964;2023-09-12T23:54:05;26.08;;;23.67;;
9964;SDS011;5023;53.554;9.964;2023-09-12T23:59:09;35.47;;;31.95;;
